createdAt,value
2022-11-10T00:01:12.242Z,99567.78
2022-11-10T00:04:01.140Z,99569.94
2022-11-10T00:06:48.497Z,99570.88
2022-11-10T00:09:35.541Z,99569.84
2022-11-10T00:12:24.169Z,99576.19
2022-11-10T00:15:29.824Z,99572.34
2022-11-10T00:18:17.167Z,99571.13
2022-11-10T00:21:07.464Z,99563.81
2022-11-10T00:23:54.849Z,99567.31
2022-11-10T00:26:42.121Z,99566.09
2022-11-10T00:29:29.179Z,99563.72
2022-11-10T00:32:16.562Z,99559.03
2022-11-10T00:35:03.871Z,99561.97
2022-11-10T00:37:52.719Z,99564.66
2022-11-10T00:40:41.835Z,99581.22
2022-11-10T00:43:29.322Z,99576.28
2022-11-10T00:46:17.169Z,99576.81
2022-11-10T00:49:04.123Z,99565.31
2022-11-10T00:51:50.968Z,99562.53
2022-11-10T00:54:40.509Z,99563.66
2022-11-10T00:57:27.935Z,99563.19
2022-11-10T01:00:15.405Z,99554.94
2022-11-10T01:03:03.372Z,99556.63
2022-11-10T01:05:50.405Z,99558.25
2022-11-10T01:08:37.992Z,99561.34
2022-11-10T01:11:28.637Z,99551.69
2022-11-10T01:14:16.177Z,99556.06
2022-11-10T01:17:03.266Z,99559.06
2022-11-10T01:19:50.656Z,99551.09
2022-11-10T01:22:37.917Z,99547.69
2022-11-10T01:25:25.039Z,99557.22
2022-11-10T01:28:15.253Z,99548.34
2022-11-10T01:31:04.360Z,99546.94
2022-11-10T01:33:51.468Z,99534.47
2022-11-10T01:36:38.730Z,99539.28
2022-11-10T01:39:26.006Z,99544.59
2022-11-10T01:42:13.457Z,99549.94
2022-11-10T01:45:40.974Z,99547.25
2022-11-10T01:48:34.433Z,99549.09
2022-11-10T01:51:36.307Z,99556.22
2022-11-10T01:54:27.721Z,99550.81
2022-11-10T01:57:16.522Z,99547.25
2022-11-10T02:00:05.963Z,99555.88
2022-11-10T02:02:59.498Z,99550.56
2022-11-10T02:05:46.492Z,99554.09
2022-11-10T02:08:34.217Z,99557.31
2022-11-10T02:11:21.978Z,99545.03
2022-11-10T02:14:09.995Z,99552.53
2022-11-10T02:16:57.634Z,99556.22
2022-11-10T02:19:46.877Z,99546.50
2022-11-10T02:22:35.655Z,99548.06
2022-11-10T02:25:24.708Z,99543.25
2022-11-10T02:28:11.952Z,99550.63
2022-11-10T02:30:59.251Z,99556.72
2022-11-10T02:33:46.581Z,99550.41
2022-11-10T02:36:33.643Z,99548.19
2022-11-10T02:39:22.170Z,99549.34
2022-11-10T02:42:11.525Z,99546.94
2022-11-10T02:44:59.178Z,99551.75
2022-11-10T02:47:46.287Z,99548.25
2022-11-10T02:50:33.703Z,99554.88
2022-11-10T02:53:21.633Z,99545.63
2022-11-10T02:56:10.614Z,99561.06
2022-11-10T02:58:57.935Z,99551.19
2022-11-10T03:01:45.648Z,99548.63
2022-11-10T03:04:32.730Z,99554.41
2022-11-10T03:07:19.875Z,99542.28
2022-11-10T03:10:07.739Z,99550.41
2022-11-10T03:12:57.216Z,99554.94
2022-11-10T03:15:44.627Z,99559.22
2022-11-10T03:18:31.708Z,99550.78
2022-11-10T03:21:18.856Z,99558.59
2022-11-10T03:24:06.997Z,99549.09
2022-11-10T03:26:54.012Z,99552.28
2022-11-10T03:29:42.291Z,99555.41
2022-11-10T03:32:29.529Z,99549.78
2022-11-10T03:35:16.871Z,99543.28
2022-11-10T03:38:04.611Z,99550.06
2022-11-10T03:44:01.388Z,99556.88
2022-11-10T03:46:51.762Z,99547.63
2022-11-10T03:49:38.964Z,99549.75
2022-11-10T03:52:26.454Z,99546.44
2022-11-10T03:55:14.742Z,99535.00
2022-11-10T03:58:04.015Z,99529.84
2022-11-10T04:00:55.045Z,99535.81
2022-11-10T04:03:48.796Z,99538.66
2022-11-10T04:06:55.738Z,99538.94
2022-11-10T04:09:42.997Z,99542.28
2022-11-10T04:12:49.123Z,99543.06
2022-11-10T04:15:44.982Z,99543.47
2022-11-10T04:18:35.181Z,99533.91
2022-11-10T04:21:24.006Z,99530.53
2022-11-10T04:24:32.728Z,99536.34
2022-11-10T04:27:20.049Z,99530.72
2022-11-10T04:30:09.103Z,99536.47
2022-11-10T04:32:56.732Z,99532.16
2022-11-10T04:35:44.357Z,99538.13
2022-11-10T04:38:33.192Z,99538.31
2022-11-10T04:41:20.251Z,99530.59
2022-11-10T04:44:07.816Z,99528.53
2022-11-10T04:46:55.036Z,99528.88
2022-11-10T04:49:42.528Z,99532.53
2022-11-10T04:52:31.723Z,99540.63
2022-11-10T04:55:20.507Z,99535.69
2022-11-10T04:58:07.494Z,99545.88
2022-11-10T05:00:55.145Z,99543.47
2022-11-10T05:03:42.864Z,99559.56
2022-11-10T05:06:30.267Z,99561.69
2022-11-10T05:09:17.904Z,99558.53
2022-11-10T05:12:06.726Z,99558.22
2022-11-10T05:14:54.225Z,99563.50
2022-11-10T05:17:41.490Z,99580.59
2022-11-10T05:20:29.576Z,99570.00
2022-11-10T05:23:34.362Z,99575.00
2022-11-10T05:26:21.155Z,99581.94
2022-11-10T05:29:09.666Z,99572.69
2022-11-10T05:31:56.992Z,99570.19
2022-11-10T05:34:44.276Z,99559.81
2022-11-10T05:37:32.133Z,99559.69
2022-11-10T05:40:19.654Z,99559.38
2022-11-10T05:43:06.788Z,99567.69
2022-11-10T05:45:55.296Z,99559.38
2022-11-10T05:48:42.642Z,99568.84
2022-11-10T05:51:29.842Z,99571.31
2022-11-10T05:54:17.257Z,99565.69
2022-11-10T05:57:04.385Z,99561.00
2022-11-10T05:59:51.930Z,99564.47
2022-11-10T06:02:40.822Z,99561.88
2022-11-10T06:05:31.285Z,99569.44
2022-11-10T06:08:19.150Z,99564.69
2022-11-10T06:11:07.265Z,99560.56
2022-11-10T06:13:54.421Z,99570.34
2022-11-10T06:16:41.831Z,99563.69
2022-11-10T06:19:30.430Z,99564.34
2022-11-10T06:22:17.401Z,99552.88
2022-11-10T06:25:04.991Z,99560.34
2022-11-10T06:27:52.059Z,99555.72
2022-11-10T06:30:39.940Z,99556.31
2022-11-10T06:33:27.565Z,99552.00
2022-11-10T06:36:16.294Z,99553.00
2022-11-10T06:39:04.121Z,99557.41
2022-11-10T06:41:51.395Z,99549.09
2022-11-10T06:44:38.652Z,99547.41
2022-11-10T06:47:26.058Z,99564.47
2022-11-10T06:50:13.777Z,99562.19
2022-11-10T06:53:03.150Z,99562.88
2022-11-10T06:55:50.378Z,99563.97
2022-11-10T06:58:37.882Z,99563.38
2022-11-10T07:01:26.872Z,99563.38
2022-11-10T07:04:20.446Z,99565.44
2022-11-10T07:07:08.285Z,99556.91
2022-11-10T07:09:56.876Z,99567.84
2022-11-10T07:12:44.116Z,99561.78
2022-11-10T07:15:33.310Z,99573.81
2022-11-10T07:18:20.550Z,99570.00
2022-11-10T07:21:08.322Z,99568.69
2022-11-10T07:23:55.495Z,99577.34
2022-11-10T07:26:43.884Z,99580.66
2022-11-10T07:29:33.936Z,99574.66
2022-11-10T07:32:21.400Z,99575.81
2022-11-10T07:35:09.742Z,99564.88
2022-11-10T07:37:57.650Z,99575.31
2022-11-10T07:40:44.702Z,99575.47
2022-11-10T07:43:33.611Z,99568.47
2022-11-10T07:46:21.453Z,99571.84
2022-11-10T07:49:09.096Z,99572.06
2022-11-10T07:51:56.393Z,99576.88
2022-11-10T07:54:43.737Z,99569.75
2022-11-10T07:57:39.008Z,99577.97
2022-11-10T08:00:31.282Z,99575.34
2022-11-10T08:03:21.689Z,99575.81
2022-11-10T08:06:10.420Z,99567.03
2022-11-10T08:08:57.438Z,99583.97
2022-11-10T08:11:44.545Z,99585.38
2022-11-10T08:14:31.994Z,99570.28
2022-11-10T08:17:23.162Z,99583.69
2022-11-10T08:20:11.470Z,99589.59
2022-11-10T08:23:01.616Z,99580.81
2022-11-10T08:25:53.485Z,99579.34
2022-11-10T08:28:40.590Z,99586.00
2022-11-10T08:31:27.860Z,99574.28
2022-11-10T08:34:16.560Z,99570.56
2022-11-10T08:37:03.654Z,99570.63
2022-11-10T08:39:50.861Z,99561.53
2022-11-10T08:42:38.004Z,99567.19
2022-11-10T08:45:25.087Z,99566.38
2022-11-10T08:48:14.249Z,99572.31
2022-11-10T08:51:02.622Z,99571.56
2022-11-10T08:53:49.514Z,99566.22
2022-11-10T08:56:36.751Z,99574.31
2022-11-10T08:59:23.901Z,99573.59
2022-11-10T09:02:11.579Z,99552.81
2022-11-10T09:04:59.225Z,99568.63
2022-11-10T09:07:49.291Z,99570.88
2022-11-10T09:10:37.928Z,99569.16
2022-11-10T09:13:29.899Z,99561.50
2022-11-10T09:16:18.283Z,99561.72
2022-11-10T09:19:05.609Z,99549.72
2022-11-10T09:21:52.849Z,99564.47
2022-11-10T09:24:41.792Z,99567.47
2022-11-10T09:27:28.937Z,99568.13
2022-11-10T09:30:18.083Z,99567.38
2022-11-10T09:33:05.597Z,99567.00
2022-11-10T09:35:53.017Z,99557.47
2022-11-10T09:38:40.282Z,99546.41
2022-11-10T09:41:31.151Z,99558.47
2022-11-10T09:44:27.706Z,99551.03
2022-11-10T09:47:55.653Z,99550.72
2022-11-10T09:50:42.940Z,99565.50
2022-11-10T09:53:34.369Z,99558.59
2022-11-10T09:56:51.144Z,99551.84
2022-11-10T09:59:40.557Z,99550.81
2022-11-10T10:02:33.553Z,99542.69
2022-11-10T10:05:41.771Z,99550.47
2022-11-10T10:08:40.568Z,99544.75
2022-11-10T10:11:48.852Z,99537.28
2022-11-10T10:14:59.601Z,99540.50
2022-11-10T10:17:58.306Z,99543.22
2022-11-10T10:20:55.935Z,99554.75
2022-11-10T10:24:08.535Z,99551.69
2022-11-10T10:26:57.196Z,99548.50
2022-11-10T10:29:48.227Z,99554.41
2022-11-10T10:33:37.646Z,99558.69
2022-11-10T10:36:50.642Z,99529.47
2022-11-10T10:40:20.058Z,99543.22
2022-11-10T10:46:49.090Z,99535.78
2022-11-10T10:49:47.887Z,99539.31
2022-11-10T10:52:37.853Z,99503.75
2022-11-10T10:55:30.561Z,99557.81
2022-11-10T10:58:24.165Z,99552.88
2022-11-10T11:01:24.025Z,99556.63
2022-11-10T11:04:30.204Z,99554.97
2022-11-10T11:07:23.122Z,99545.28
2022-11-10T11:10:23.769Z,99544.69
2022-11-10T11:13:16.289Z,99549.47
2022-11-10T11:16:05.595Z,99535.34
2022-11-10T11:18:53.005Z,99534.75
2022-11-10T11:21:54.027Z,99532.88
2022-11-10T11:24:50.021Z,99538.31
2022-11-10T11:27:51.007Z,99544.41
2022-11-10T11:30:56.366Z,99544.81
2022-11-10T11:33:50.323Z,99540.50
2022-11-10T11:36:48.167Z,99535.66
2022-11-10T11:39:47.713Z,99539.81
2022-11-10T11:42:49.902Z,99540.34
2022-11-10T11:45:47.063Z,99546.44
2022-11-10T11:48:51.507Z,99538.22
2022-11-10T11:51:46.924Z,99549.47
2022-11-10T11:54:49.356Z,99542.63
2022-11-10T11:57:46.868Z,99547.00
2022-11-10T12:00:44.128Z,99549.59
2022-11-10T12:03:47.316Z,99547.50
2022-11-10T12:06:50.842Z,99543.16
2022-11-10T12:09:48.381Z,99542.94
2022-11-10T12:13:06.184Z,99530.84
2022-11-10T12:15:59.583Z,99528.38
2022-11-10T12:18:55.161Z,99541.44
2022-11-10T12:21:51.388Z,99540.72
2022-11-10T12:24:57.420Z,99533.63
2022-11-10T12:27:51.328Z,99540.31
2022-11-10T12:30:39.815Z,99534.41
2022-11-10T12:33:32.684Z,99542.97
2022-11-10T12:36:22.553Z,99532.41
2022-11-10T12:39:20.101Z,99553.44
2022-11-10T12:42:15.441Z,99559.66
2022-11-10T12:45:08.680Z,99578.19
2022-11-10T12:47:59.323Z,99583.41
2022-11-10T12:50:53.393Z,99583.91
2022-11-10T12:53:49.032Z,99582.84
2022-11-10T12:56:40.762Z,99574.22
2022-11-10T12:59:32.844Z,99583.22
2022-11-10T13:02:31.448Z,99574.75
2022-11-10T13:05:32.392Z,99582.00
2022-11-10T13:08:31.015Z,99564.91
2022-11-10T13:11:30.457Z,99576.75
2022-11-10T13:14:26.385Z,99565.19
2022-11-10T13:17:55.837Z,99571.47
2022-11-10T13:20:51.284Z,99584.75
2022-11-10T13:24:21.073Z,99586.44
2022-11-10T13:27:13.353Z,99589.75
2022-11-10T13:30:01.450Z,99587.63
2022-11-10T13:32:50.253Z,99583.69
2022-11-10T13:35:55.266Z,99585.00
2022-11-10T13:38:44.532Z,99588.72
2022-11-10T13:41:34.862Z,99591.72
2022-11-10T13:44:25.735Z,99582.75
2022-11-10T13:47:46.859Z,99601.69
2022-11-10T13:50:54.283Z,99606.81
2022-11-10T13:53:52.133Z,99604.50
2022-11-10T13:56:52.552Z,99598.41
2022-11-10T13:59:49.028Z,99606.16
2022-11-10T14:02:50.607Z,99601.69
2022-11-10T14:06:08.741Z,99609.97
2022-11-10T14:09:01.563Z,99605.53
2022-11-10T14:11:52.041Z,99607.31
2022-11-10T14:14:50.550Z,99615.00
2022-11-10T14:17:42.717Z,99612.16
2022-11-10T14:20:40.661Z,99620.47
2022-11-10T14:23:37.532Z,99613.34
2022-11-10T14:26:29.382Z,99624.09
2022-11-10T14:29:28.520Z,99620.28
2022-11-10T14:32:19.837Z,99622.19
2022-11-10T14:35:08.451Z,99610.84
2022-11-10T14:38:25.374Z,99606.50
2022-11-10T14:41:20.349Z,99618.44
2022-11-10T14:44:13.358Z,99608.97
2022-11-10T14:47:18.995Z,99596.38
2022-11-10T14:54:04.410Z,99603.69
2022-11-10T14:56:54.672Z,99603.19
2022-11-10T15:04:05.803Z,99609.34
2022-11-10T15:06:54.207Z,99624.59
2022-11-10T15:09:42.124Z,99632.75
2022-11-10T15:12:32.487Z,99642.69
2022-11-10T15:15:24.539Z,99644.31
2022-11-10T15:18:31.413Z,99630.75
2022-11-10T15:21:34.423Z,99588.69
2022-11-10T15:24:28.574Z,99587.72
2022-11-10T15:27:25.557Z,99629.94
2022-11-10T15:30:25.131Z,99641.63
2022-11-10T15:33:13.000Z,99642.19
2022-11-10T15:36:17.633Z,99638.38
2022-11-10T15:39:08.619Z,99646.31
2022-11-10T15:42:01.835Z,99633.09
2022-11-10T15:44:49.239Z,99630.44
2022-11-10T15:47:37.999Z,99630.19
2022-11-10T15:50:29.592Z,99633.06
2022-11-10T15:53:31.016Z,99630.13
2022-11-10T15:56:20.958Z,99645.00
2022-11-10T15:59:12.172Z,99640.22
2022-11-10T16:02:03.066Z,99630.91
2022-11-10T16:05:13.904Z,99630.44
2022-11-10T16:08:01.601Z,99624.28
2022-11-10T16:10:53.242Z,99632.59
2022-11-10T16:13:41.136Z,99623.09
2022-11-10T16:16:29.015Z,99617.81
2022-11-10T16:19:16.087Z,99614.03
2022-11-10T16:22:04.531Z,99609.28
2022-11-10T16:24:52.158Z,99608.81
2022-11-10T16:27:44.082Z,99605.66
2022-11-10T16:30:54.748Z,99607.34
2022-11-10T16:33:43.046Z,99600.66
2022-11-10T16:36:37.492Z,99593.69
2022-11-10T16:39:27.686Z,99590.34
2022-11-10T16:42:31.318Z,99603.94
2022-11-10T16:45:33.493Z,99591.56
2022-11-10T16:48:26.373Z,99608.47
2022-11-10T16:51:14.413Z,99594.34
2022-11-10T16:54:01.384Z,99611.63
2022-11-10T16:56:50.090Z,99609.88
2022-11-10T16:59:37.272Z,99610.00
2022-11-10T17:02:30.523Z,99611.19
2022-11-10T17:05:18.068Z,99617.63
2022-11-10T17:08:06.260Z,99617.91
2022-11-10T17:10:56.916Z,99623.16
2022-11-10T17:13:45.939Z,99626.53
2022-11-10T17:16:35.203Z,99626.75
2022-11-10T17:19:27.996Z,99631.09
2022-11-10T17:22:19.921Z,99624.66
2022-11-10T17:25:14.190Z,99629.59
2022-11-10T17:28:01.820Z,99642.41
2022-11-10T17:30:52.601Z,99641.56
2022-11-10T17:33:40.336Z,99636.22
2022-11-10T17:36:27.547Z,99643.94
2022-11-10T17:39:18.488Z,99624.41
2022-11-10T17:42:13.697Z,99641.13
2022-11-10T17:45:00.942Z,99638.50
2022-11-10T17:47:51.688Z,99628.44
2022-11-10T17:50:42.607Z,99625.47
2022-11-10T17:53:29.648Z,99632.66
2022-11-10T17:56:16.791Z,99633.50
2022-11-10T17:59:03.808Z,99630.94
2022-11-10T18:01:51.209Z,99631.47
2022-11-10T18:04:39.648Z,99637.84
2022-11-10T18:07:26.849Z,99641.59
2022-11-10T18:10:15.886Z,99637.25
2022-11-10T18:13:03.380Z,99647.78
2022-11-10T18:15:56.887Z,99640.13
2022-11-10T18:18:44.027Z,99642.59
2022-11-10T18:21:32.791Z,99638.72
2022-11-10T18:24:19.905Z,99647.75
2022-11-10T18:27:06.918Z,99624.31
2022-11-10T18:29:54.297Z,99624.66
2022-11-10T18:32:41.357Z,99644.50
2022-11-10T18:35:28.677Z,99646.13
2022-11-10T18:38:19.188Z,99641.91
2022-11-10T18:41:21.650Z,99647.78
2022-11-10T18:44:09.123Z,99635.28
2022-11-10T18:46:56.447Z,99647.09
2022-11-10T18:49:43.371Z,99637.81
2022-11-10T18:52:32.317Z,99642.53
2022-11-10T18:55:24.363Z,99644.94
2022-11-10T18:58:11.785Z,99643.44
2022-11-10T19:01:06.259Z,99644.84
2022-11-10T19:03:53.260Z,99645.03
2022-11-10T19:06:40.665Z,99648.72
2022-11-10T19:09:28.781Z,99649.75
2022-11-10T19:12:17.325Z,99642.00
2022-11-10T19:15:06.568Z,99636.81
2022-11-10T19:17:53.671Z,99644.03
2022-11-10T19:20:43.869Z,99647.84
2022-11-10T19:23:33.243Z,99642.09
2022-11-10T19:26:23.029Z,99641.75
2022-11-10T19:29:15.310Z,99642.28
2022-11-10T19:32:02.843Z,99642.94
2022-11-10T19:34:50.427Z,99638.34
2022-11-10T19:37:42.257Z,99631.03
2022-11-10T19:40:30.049Z,99647.75
2022-11-10T19:43:17.259Z,99628.69
2022-11-10T19:46:06.963Z,99637.44
2022-11-10T19:48:54.537Z,99628.44
2022-11-10T19:51:41.672Z,99643.53
2022-11-10T19:54:29.064Z,99648.81
2022-11-10T19:57:16.382Z,99625.88
2022-11-10T20:00:03.570Z,99643.13
2022-11-10T20:02:55.270Z,99636.56
2022-11-10T20:05:42.447Z,99629.81
2022-11-10T20:08:30.171Z,99635.84
2022-11-10T20:11:25.933Z,99626.34
2022-11-10T20:14:12.966Z,99638.28
2022-11-10T20:17:00.013Z,99640.41
2022-11-10T20:19:49.199Z,99628.91
2022-11-10T20:22:36.508Z,99638.91
2022-11-10T20:25:23.331Z,99642.41
2022-11-10T20:28:10.728Z,99643.94
2022-11-10T20:31:01.597Z,99647.88
2022-11-10T20:33:49.296Z,99640.75
2022-11-10T20:36:37.771Z,99649.75
2022-11-10T20:39:29.476Z,99639.94
2022-11-10T20:42:16.637Z,99642.13
2022-11-10T20:45:04.092Z,99647.75
2022-11-10T20:47:51.364Z,99639.81
2022-11-10T20:50:41.403Z,99645.97
2022-11-10T20:53:31.135Z,99642.00
2022-11-10T20:56:18.143Z,99644.25
2022-11-10T20:59:05.376Z,99655.41
2022-11-10T21:01:52.955Z,99641.53
2022-11-10T21:04:43.002Z,99644.78
2022-11-10T21:07:31.861Z,99645.84
2022-11-10T21:10:20.419Z,99645.59
2022-11-10T21:13:07.702Z,99633.69
2022-11-10T21:15:57.286Z,99642.28
2022-11-10T21:18:44.673Z,99650.53
2022-11-10T21:21:35.303Z,99647.03
2022-11-10T21:24:22.527Z,99642.59
2022-11-10T21:27:12.246Z,99653.53
2022-11-10T21:29:59.881Z,99657.44
2022-11-10T21:32:46.906Z,99643.09
2022-11-10T21:35:38.220Z,99650.91
2022-11-10T21:38:25.623Z,99654.00
2022-11-10T21:41:12.584Z,99652.25
2022-11-10T21:44:01.598Z,99652.25
2022-11-10T21:46:48.819Z,99651.81
2022-11-10T21:49:36.050Z,99665.47
2022-11-10T21:52:23.224Z,99664.66
2022-11-10T21:55:11.152Z,99656.84
2022-11-10T21:57:59.211Z,99662.13
2022-11-10T22:00:47.975Z,99665.03
2022-11-10T22:03:35.911Z,99668.75
2022-11-10T22:06:23.152Z,99665.59
2022-11-10T22:09:10.310Z,99664.34
2022-11-10T22:12:14.328Z,99667.69
2022-11-10T22:15:19.087Z,99665.72
2022-11-10T22:18:30.646Z,99666.94
2022-11-10T22:21:18.189Z,99671.81
2022-11-10T22:24:22.804Z,99674.53
2022-11-10T22:27:10.212Z,99656.34
2022-11-10T22:29:57.042Z,99664.00
2022-11-10T22:32:44.147Z,99670.53
2022-11-10T22:35:44.562Z,99666.94
2022-11-10T22:38:32.217Z,99658.91
2022-11-10T22:41:36.156Z,99658.44
2022-11-10T22:44:25.160Z,99659.66
2022-11-10T22:47:12.491Z,99657.81
2022-11-10T22:49:59.946Z,99652.13
2022-11-10T22:52:48.488Z,99653.78
2022-11-10T22:55:35.273Z,99646.59
2022-11-10T22:58:22.199Z,99651.59
2022-11-10T23:01:10.664Z,99655.91
2022-11-10T23:03:58.589Z,99658.84
2022-11-10T23:06:45.793Z,99660.72
2022-11-10T23:09:35.018Z,99668.28
2022-11-10T23:12:22.109Z,99667.59
2022-11-10T23:15:09.995Z,99667.50
2022-11-10T23:18:00.004Z,99672.47
2022-11-10T23:20:50.677Z,99667.41
2022-11-10T23:23:40.458Z,99657.28
2022-11-10T23:26:30.708Z,99670.03
2022-11-10T23:29:17.946Z,99660.41
2022-11-10T23:32:05.229Z,99662.06
2022-11-10T23:34:52.208Z,99666.63
2022-11-10T23:37:39.183Z,99655.88
2022-11-10T23:40:26.351Z,99662.56
2022-11-10T23:43:15.460Z,99659.34
2022-11-10T23:46:07.252Z,99659.44
2022-11-10T23:48:54.661Z,99653.94
2022-11-10T23:51:41.974Z,99657.34
2022-11-10T23:54:29.301Z,99659.94
2022-11-10T23:57:16.536Z,99663.53
